sensor_id;sensor_type;location;lat;lon;timestamp;temperature;humidity
318;DHT22;146;53.448;10.228;2023-02-28T00:01:36;3.00;1.00
318;DHT22;146;53.448;10.228;2023-02-28T00:04:03;2.90;1.00
318;DHT22;146;53.448;10.228;2023-02-28T00:06:30;2.90;1.00
318;DHT22;146;53.448;10.228;2023-02-28T00:08:58;2.80;1.00
318;DHT22;146;53.448;10.228;2023-02-28T00:11:34;2.90;1.00
318;DHT22;146;53.448;10.228;2023-02-28T00:14:03;2.80;1.00
318;DHT22;146;53.448;10.228;2023-02-28T00:16:30;2.80;1.00
318;DHT22;146;53.448;10.228;2023-02-28T00:19:01;2.80;1.00
318;DHT22;146;53.448;10.228;2023-02-28T00:21:30;2.80;1.00
318;DHT22;146;53.448;10.228;2023-02-28T00:23:57;2.70;1.00
318;DHT22;146;53.448;10.228;2023-02-28T00:26:26;2.60;1.00
318;DHT22;146;53.448;10.228;2023-02-28T00:28:59;2.50;1.00
318;DHT22;146;53.448;10.228;2023-02-28T00:31:29;2.50;1.00
318;DHT22;146;53.448;10.228;2023-02-28T00:34:00;2.40;1.00
318;DHT22;146;53.448;10.228;2023-02-28T00:36:27;2.30;1.00
318;DHT22;146;53.448;10.228;2023-02-28T00:38:56;2.30;1.00
318;DHT22;146;53.448;10.228;2023-02-28T00:41:23;2.20;1.00
318;DHT22;146;53.448;10.228;2023-02-28T00:43:56;2.20;1.00
318;DHT22;146;53.448;10.228;2023-02-28T00:46:29;2.10;1.00
318;DHT22;146;53.448;10.228;2023-02-28T00:48:56;2.00;1.00
318;DHT22;146;53.448;10.228;2023-02-28T00:51:29;1.90;1.00
318;DHT22;146;53.448;10.228;2023-02-28T00:53:58;1.80;1.00
318;DHT22;146;53.448;10.228;2023-02-28T00:56:25;1.70;1.00
318;DHT22;146;53.448;10.228;2023-02-28T00:58:51;1.60;1.00
318;DHT22;146;53.448;10.228;2023-02-28T01:01:23;1.60;1.00
318;DHT22;146;53.448;10.228;2023-02-28T01:03:50;1.40;1.00
318;DHT22;146;53.448;10.228;2023-02-28T01:06:17;1.30;1.00
318;DHT22;146;53.448;10.228;2023-02-28T01:08:47;1.30;1.00
318;DHT22;146;53.448;10.228;2023-02-28T01:11:16;1.30;1.00
318;DHT22;146;53.448;10.228;2023-02-28T01:13:45;1.20;1.00
318;DHT22;146;53.448;10.228;2023-02-28T01:16:15;1.20;1.00
318;DHT22;146;53.448;10.228;2023-02-28T01:18:54;1.20;1.00
318;DHT22;146;53.448;10.228;2023-02-28T01:21:21;1.20;1.00
318;DHT22;146;53.448;10.228;2023-02-28T01:23:57;1.20;1.00
318;DHT22;146;53.448;10.228;2023-02-28T01:26:30;1.20;1.00
318;DHT22;146;53.448;10.228;2023-02-28T01:28:57;1.20;1.00
318;DHT22;146;53.448;10.228;2023-02-28T01:31:25;1.20;1.00
318;DHT22;146;53.448;10.228;2023-02-28T01:33:55;1.10;1.00
318;DHT22;146;53.448;10.228;2023-02-28T01:36:23;1.10;1.00
318;DHT22;146;53.448;10.228;2023-02-28T01:39:01;1.10;1.00
318;DHT22;146;53.448;10.228;2023-02-28T01:41:30;1.10;1.00
318;DHT22;146;53.448;10.228;2023-02-28T01:44:00;1.10;1.00
318;DHT22;146;53.448;10.228;2023-02-28T01:46:35;1.00;1.00
318;DHT22;146;53.448;10.228;2023-02-28T01:49:08;1.00;1.00
318;DHT22;146;53.448;10.228;2023-02-28T01:51:39;1.00;1.00
318;DHT22;146;53.448;10.228;2023-02-28T01:54:21;1.00;1.00
318;DHT22;146;53.448;10.228;2023-02-28T01:57:01;0.90;1.00
318;DHT22;146;53.448;10.228;2023-02-28T01:59:36;0.90;1.00
318;DHT22;146;53.448;10.228;2023-02-28T02:02:06;0.80;1.00
318;DHT22;146;53.448;10.228;2023-02-28T02:04:38;0.80;1.00
318;DHT22;146;53.448;10.228;2023-02-28T02:07:05;0.80;1.00
318;DHT22;146;53.448;10.228;2023-02-28T02:09:34;0.80;1.00
318;DHT22;146;53.448;10.228;2023-02-28T02:12:09;0.80;1.00
318;DHT22;146;53.448;10.228;2023-02-28T02:14:47;0.80;1.00
318;DHT22;146;53.448;10.228;2023-02-28T02:17:32;0.80;1.00
318;DHT22;146;53.448;10.228;2023-02-28T02:23:37;0.70;1.00
318;DHT22;146;53.448;10.228;2023-02-28T02:27:02;0.70;1.00
318;DHT22;146;53.448;10.228;2023-02-28T02:33:03;0.50;1.00
318;DHT22;146;53.448;10.228;2023-02-28T02:35:37;0.50;1.00
318;DHT22;146;53.448;10.228;2023-02-28T02:38:31;0.40;1.00
318;DHT22;146;53.448;10.228;2023-02-28T02:41:08;0.40;1.00
318;DHT22;146;53.448;10.228;2023-02-28T02:43:51;0.40;1.00
318;DHT22;146;53.448;10.228;2023-02-28T02:46:20;0.30;1.00
318;DHT22;146;53.448;10.228;2023-02-28T02:48:48;0.40;1.00
318;DHT22;146;53.448;10.228;2023-02-28T02:51:27;0.30;1.00
318;DHT22;146;53.448;10.228;2023-02-28T02:53:56;0.40;1.00
318;DHT22;146;53.448;10.228;2023-02-28T02:56:34;0.40;1.00
318;DHT22;146;53.448;10.228;2023-02-28T02:59:06;0.40;1.00
318;DHT22;146;53.448;10.228;2023-02-28T03:01:35;0.40;1.00
318;DHT22;146;53.448;10.228;2023-02-28T03:04:04;0.30;1.00
318;DHT22;146;53.448;10.228;2023-02-28T03:06:36;0.30;1.00
318;DHT22;146;53.448;10.228;2023-02-28T03:09:03;0.30;1.00
318;DHT22;146;53.448;10.228;2023-02-28T03:11:31;0.30;1.00
318;DHT22;146;53.448;10.228;2023-02-28T03:14:15;0.20;1.00
318;DHT22;146;53.448;10.228;2023-02-28T03:17:03;0.30;1.00
318;DHT22;146;53.448;10.228;2023-02-28T03:19:53;0.30;1.00
318;DHT22;146;53.448;10.228;2023-02-28T03:22:49;0.30;1.00
318;DHT22;146;53.448;10.228;2023-02-28T03:25:29;0.30;1.00
318;DHT22;146;53.448;10.228;2023-02-28T03:28:08;0.30;1.00
318;DHT22;146;53.448;10.228;2023-02-28T03:30:41;0.20;1.00
318;DHT22;146;53.448;10.228;2023-02-28T03:33:12;0.20;1.00
318;DHT22;146;53.448;10.228;2023-02-28T03:35:52;0.20;1.00
318;DHT22;146;53.448;10.228;2023-02-28T03:38:36;0.10;1.00
318;DHT22;146;53.448;10.228;2023-02-28T03:41:13;0.10;1.00
318;DHT22;146;53.448;10.228;2023-02-28T03:43:46;0.00;1.00
318;DHT22;146;53.448;10.228;2023-02-28T03:46:22;0.00;1.00
318;DHT22;146;53.448;10.228;2023-02-28T03:48:55;0.00;1.00
318;DHT22;146;53.448;10.228;2023-02-28T03:51:25;0.00;1.00
318;DHT22;146;53.448;10.228;2023-02-28T03:53:58;0.00;1.00
318;DHT22;146;53.448;10.228;2023-02-28T03:56:42;0.00;1.00
318;DHT22;146;53.448;10.228;2023-02-28T03:59:16;0.00;1.00
318;DHT22;146;53.448;10.228;2023-02-28T04:01:46;0.10;1.00
318;DHT22;146;53.448;10.228;2023-02-28T04:04:14;0.00;1.00
318;DHT22;146;53.448;10.228;2023-02-28T04:06:44;0.00;1.00
318;DHT22;146;53.448;10.228;2023-02-28T04:09:18;0.00;1.00
318;DHT22;146;53.448;10.228;2023-02-28T04:11:48;-0.10;1.00
318;DHT22;146;53.448;10.228;2023-02-28T04:14:19;-0.10;1.00
318;DHT22;146;53.448;10.228;2023-02-28T04:16:57;-0.10;1.00
318;DHT22;146;53.448;10.228;2023-02-28T04:19:24;-0.20;1.00
318;DHT22;146;53.448;10.228;2023-02-28T04:21:57;-0.20;1.00
318;DHT22;146;53.448;10.228;2023-02-28T04:24:34;-0.20;1.00
318;DHT22;146;53.448;10.228;2023-02-28T04:27:01;-0.20;1.00
318;DHT22;146;53.448;10.228;2023-02-28T04:29:29;-0.20;1.00
318;DHT22;146;53.448;10.228;2023-02-28T04:31:57;-0.20;1.00
318;DHT22;146;53.448;10.228;2023-02-28T04:34:27;-0.30;1.00
318;DHT22;146;53.448;10.228;2023-02-28T04:36:57;-0.30;1.00
318;DHT22;146;53.448;10.228;2023-02-28T04:39:35;-0.40;1.00
318;DHT22;146;53.448;10.228;2023-02-28T04:42:02;-0.60;1.00
318;DHT22;146;53.448;10.228;2023-02-28T04:44:30;-0.60;1.00
318;DHT22;146;53.448;10.228;2023-02-28T04:46:57;-0.60;1.00
318;DHT22;146;53.448;10.228;2023-02-28T04:49:30;-0.70;1.00
318;DHT22;146;53.448;10.228;2023-02-28T04:51:59;-0.70;1.00
318;DHT22;146;53.448;10.228;2023-02-28T04:54:26;-0.70;1.00
318;DHT22;146;53.448;10.228;2023-02-28T04:56:55;-0.60;1.00
318;DHT22;146;53.448;10.228;2023-02-28T04:59:31;-0.70;1.00
318;DHT22;146;53.448;10.228;2023-02-28T05:01:58;-0.70;1.00
318;DHT22;146;53.448;10.228;2023-02-28T05:04:25;-0.70;1.00
318;DHT22;146;53.448;10.228;2023-02-28T05:06:52;-0.70;1.00
318;DHT22;146;53.448;10.228;2023-02-28T05:09:23;-0.70;1.00
318;DHT22;146;53.448;10.228;2023-02-28T05:11:55;-0.60;1.00
318;DHT22;146;53.448;10.228;2023-02-28T05:14:30;-0.70;1.00
318;DHT22;146;53.448;10.228;2023-02-28T05:17:03;-0.70;1.00
318;DHT22;146;53.448;10.228;2023-02-28T05:19:33;-0.70;1.00
318;DHT22;146;53.448;10.228;2023-02-28T05:22:03;-0.70;1.00
318;DHT22;146;53.448;10.228;2023-02-28T05:24:30;-0.70;1.00
318;DHT22;146;53.448;10.228;2023-02-28T05:27:01;-0.80;1.00
318;DHT22;146;53.448;10.228;2023-02-28T05:29:28;-0.80;1.00
318;DHT22;146;53.448;10.228;2023-02-28T05:31:58;-0.90;1.00
318;DHT22;146;53.448;10.228;2023-02-28T05:34:25;-0.90;1.00
318;DHT22;146;53.448;10.228;2023-02-28T05:36:55;-0.80;1.00
318;DHT22;146;53.448;10.228;2023-02-28T05:39:22;-0.70;1.00
318;DHT22;146;53.448;10.228;2023-02-28T05:41:51;-0.70;1.00
318;DHT22;146;53.448;10.228;2023-02-28T05:44:21;-0.80;1.00
318;DHT22;146;53.448;10.228;2023-02-28T05:46:48;-0.80;1.00
318;DHT22;146;53.448;10.228;2023-02-28T05:49:18;-0.80;1.00
318;DHT22;146;53.448;10.228;2023-02-28T05:51:45;-0.90;1.00
318;DHT22;146;53.448;10.228;2023-02-28T05:54:21;-0.90;1.00
318;DHT22;146;53.448;10.228;2023-02-28T05:56:47;-0.80;1.00
318;DHT22;146;53.448;10.228;2023-02-28T05:59:18;-0.80;1.00
318;DHT22;146;53.448;10.228;2023-02-28T06:01:45;-0.80;1.00
318;DHT22;146;53.448;10.228;2023-02-28T06:04:21;-0.80;1.00
318;DHT22;146;53.448;10.228;2023-02-28T06:06:48;-0.80;1.00
318;DHT22;146;53.448;10.228;2023-02-28T06:09:15;-0.80;1.00
318;DHT22;146;53.448;10.228;2023-02-28T06:11:42;-0.80;1.00
318;DHT22;146;53.448;10.228;2023-02-28T06:14:15;-0.90;1.00
318;DHT22;146;53.448;10.228;2023-02-28T06:16:47;-0.90;1.00
318;DHT22;146;53.448;10.228;2023-02-28T06:19:20;-1.00;1.00
318;DHT22;146;53.448;10.228;2023-02-28T06:21:51;-1.10;1.00
318;DHT22;146;53.448;10.228;2023-02-28T06:24:28;-1.10;1.00
318;DHT22;146;53.448;10.228;2023-02-28T06:26:57;-1.10;1.00
318;DHT22;146;53.448;10.228;2023-02-28T06:29:30;-1.10;1.00
318;DHT22;146;53.448;10.228;2023-02-28T06:32:01;-1.10;1.00
318;DHT22;146;53.448;10.228;2023-02-28T06:34:31;-1.10;1.00
318;DHT22;146;53.448;10.228;2023-02-28T06:36:59;-1.10;1.00
318;DHT22;146;53.448;10.228;2023-02-28T06:39:31;-1.00;1.00
318;DHT22;146;53.448;10.228;2023-02-28T06:42:01;-1.00;1.00
318;DHT22;146;53.448;10.228;2023-02-28T06:44:28;-1.00;1.00
318;DHT22;146;53.448;10.228;2023-02-28T06:47:02;-1.00;1.00
318;DHT22;146;53.448;10.228;2023-02-28T06:49:30;-1.10;1.00
318;DHT22;146;53.448;10.228;2023-02-28T06:52:00;-1.10;1.00
318;DHT22;146;53.448;10.228;2023-02-28T06:54:30;-1.00;1.00
318;DHT22;146;53.448;10.228;2023-02-28T06:56:57;-1.00;1.00
318;DHT22;146;53.448;10.228;2023-02-28T06:59:24;-1.00;1.00
318;DHT22;146;53.448;10.228;2023-02-28T07:01:51;-1.00;1.00
318;DHT22;146;53.448;10.228;2023-02-28T07:04:19;-0.90;1.00
318;DHT22;146;53.448;10.228;2023-02-28T07:06:46;-0.90;1.00
318;DHT22;146;53.448;10.228;2023-02-28T07:09:22;-0.90;1.00
318;DHT22;146;53.448;10.228;2023-02-28T07:12:01;-0.90;1.00
318;DHT22;146;53.448;10.228;2023-02-28T07:14:27;-0.80;1.00
318;DHT22;146;53.448;10.228;2023-02-28T07:16:54;-0.90;1.00
318;DHT22;146;53.448;10.228;2023-02-28T07:19:25;-0.80;1.00
318;DHT22;146;53.448;10.228;2023-02-28T07:21:52;-0.70;1.00
318;DHT22;146;53.448;10.228;2023-02-28T07:24:18;-0.70;1.00
318;DHT22;146;53.448;10.228;2023-02-28T07:26:45;-0.70;1.00
318;DHT22;146;53.448;10.228;2023-02-28T07:29:12;-0.70;1.00
318;DHT22;146;53.448;10.228;2023-02-28T07:31:44;-0.70;1.00
318;DHT22;146;53.448;10.228;2023-02-28T07:34:12;-0.70;1.00
318;DHT22;146;53.448;10.228;2023-02-28T07:36:40;-0.60;1.00
318;DHT22;146;53.448;10.228;2023-02-28T07:39:12;-0.60;1.00
318;DHT22;146;53.448;10.228;2023-02-28T07:41:39;-0.60;1.00
318;DHT22;146;53.448;10.228;2023-02-28T07:44:08;-0.40;1.00
318;DHT22;146;53.448;10.228;2023-02-28T07:46:38;-0.40;1.00
318;DHT22;146;53.448;10.228;2023-02-28T07:49:05;-0.30;1.00
318;DHT22;146;53.448;10.228;2023-02-28T07:51:32;-0.30;1.00
318;DHT22;146;53.448;10.228;2023-02-28T07:54:00;-0.30;1.00
318;DHT22;146;53.448;10.228;2023-02-28T07:56:27;-0.20;1.00
318;DHT22;146;53.448;10.228;2023-02-28T07:59:03;-0.10;1.00
318;DHT22;146;53.448;10.228;2023-02-28T08:01:30;-0.10;1.00
318;DHT22;146;53.448;10.228;2023-02-28T08:04:00;0.00;1.00
318;DHT22;146;53.448;10.228;2023-02-28T08:06:27;0.00;1.00
318;DHT22;146;53.448;10.228;2023-02-28T08:08:53;0.10;1.00
318;DHT22;146;53.448;10.228;2023-02-28T08:11:22;0.10;1.00
318;DHT22;146;53.448;10.228;2023-02-28T08:13:49;0.10;1.00
318;DHT22;146;53.448;10.228;2023-02-28T08:16:19;0.20;1.00
318;DHT22;146;53.448;10.228;2023-02-28T08:18:48;0.30;1.00
318;DHT22;146;53.448;10.228;2023-02-28T08:21:21;0.40;1.00
318;DHT22;146;53.448;10.228;2023-02-28T08:23:51;0.50;1.00
318;DHT22;146;53.448;10.228;2023-02-28T08:26:19;0.50;1.00
318;DHT22;146;53.448;10.228;2023-02-28T08:28:47;0.60;1.00
318;DHT22;146;53.448;10.228;2023-02-28T08:31:15;0.70;1.00
318;DHT22;146;53.448;10.228;2023-02-28T08:33:47;0.80;1.00
318;DHT22;146;53.448;10.228;2023-02-28T08:36:16;0.90;1.00
318;DHT22;146;53.448;10.228;2023-02-28T08:38:43;1.00;1.00
318;DHT22;146;53.448;10.228;2023-02-28T08:41:14;1.10;1.00
318;DHT22;146;53.448;10.228;2023-02-28T08:43:41;1.10;1.00
318;DHT22;146;53.448;10.228;2023-02-28T08:46:12;1.30;1.00
318;DHT22;146;53.448;10.228;2023-02-28T08:48:41;1.40;1.00
318;DHT22;146;53.448;10.228;2023-02-28T08:51:11;1.40;1.00
318;DHT22;146;53.448;10.228;2023-02-28T08:53:47;1.50;1.00
318;DHT22;146;53.448;10.228;2023-02-28T08:56:17;1.60;1.00
318;DHT22;146;53.448;10.228;2023-02-28T08:58:44;1.70;1.00
318;DHT22;146;53.448;10.228;2023-02-28T09:01:20;1.70;1.00
318;DHT22;146;53.448;10.228;2023-02-28T09:03:48;1.90;1.00
318;DHT22;146;53.448;10.228;2023-02-28T09:06:16;2.10;1.00
318;DHT22;146;53.448;10.228;2023-02-28T09:08:44;2.10;1.00
318;DHT22;146;53.448;10.228;2023-02-28T09:11:16;2.10;1.00
318;DHT22;146;53.448;10.228;2023-02-28T09:13:47;2.20;1.00
318;DHT22;146;53.448;10.228;2023-02-28T09:16:19;2.30;1.00
318;DHT22;146;53.448;10.228;2023-02-28T09:18:46;2.40;1.00
318;DHT22;146;53.448;10.228;2023-02-28T09:21:15;2.30;1.00
318;DHT22;146;53.448;10.228;2023-02-28T09:23:47;2.40;1.00
318;DHT22;146;53.448;10.228;2023-02-28T09:26:16;2.60;1.00
318;DHT22;146;53.448;10.228;2023-02-28T09:28:46;2.60;1.00
318;DHT22;146;53.448;10.228;2023-02-28T09:31:19;2.70;1.00
318;DHT22;146;53.448;10.228;2023-02-28T09:33:47;2.80;1.00
318;DHT22;146;53.448;10.228;2023-02-28T09:36:14;2.90;1.00
318;DHT22;146;53.448;10.228;2023-02-28T09:38:41;3.00;1.00
318;DHT22;146;53.448;10.228;2023-02-28T09:41:13;3.10;1.00
318;DHT22;146;53.448;10.228;2023-02-28T09:43:45;3.20;1.00
318;DHT22;146;53.448;10.228;2023-02-28T09:46:28;3.30;1.00
318;DHT22;146;53.448;10.228;2023-02-28T09:48:57;3.40;1.00
318;DHT22;146;53.448;10.228;2023-02-28T09:51:37;3.50;1.00
318;DHT22;146;53.448;10.228;2023-02-28T09:54:13;3.60;1.00
318;DHT22;146;53.448;10.228;2023-02-28T09:56:49;3.70;1.00
318;DHT22;146;53.448;10.228;2023-02-28T09:59:42;3.80;1.00
318;DHT22;146;53.448;10.228;2023-02-28T10:02:32;3.90;1.00
318;DHT22;146;53.448;10.228;2023-02-28T10:05:08;4.00;1.00
318;DHT22;146;53.448;10.228;2023-02-28T10:08:00;4.00;1.00
318;DHT22;146;53.448;10.228;2023-02-28T10:10:37;4.10;1.00
318;DHT22;146;53.448;10.228;2023-02-28T10:13:13;4.10;1.00
318;DHT22;146;53.448;10.228;2023-02-28T10:15:54;4.30;1.00
318;DHT22;146;53.448;10.228;2023-02-28T10:18:25;4.30;1.00
318;DHT22;146;53.448;10.228;2023-02-28T10:20:54;4.40;1.00
318;DHT22;146;53.448;10.228;2023-02-28T10:23:32;4.40;1.00
318;DHT22;146;53.448;10.228;2023-02-28T10:26:08;4.50;1.00
318;DHT22;146;53.448;10.228;2023-02-28T10:28:44;4.60;1.00
318;DHT22;146;53.448;10.228;2023-02-28T10:31:14;4.70;1.00
318;DHT22;146;53.448;10.228;2023-02-28T10:33:44;4.70;1.00
318;DHT22;146;53.448;10.228;2023-02-28T10:36:14;4.80;1.00
318;DHT22;146;53.448;10.228;2023-02-28T10:38:49;4.80;1.00
318;DHT22;146;53.448;10.228;2023-02-28T10:41:27;4.80;1.00
318;DHT22;146;53.448;10.228;2023-02-28T10:44:19;4.90;1.00
318;DHT22;146;53.448;10.228;2023-02-28T10:46:47;5.00;1.00
318;DHT22;146;53.448;10.228;2023-02-28T10:49:21;5.00;1.00
318;DHT22;146;53.448;10.228;2023-02-28T10:52:08;5.10;1.00
318;DHT22;146;53.448;10.228;2023-02-28T10:54:37;5.30;1.00
318;DHT22;146;53.448;10.228;2023-02-28T10:57:12;5.30;1.00
318;DHT22;146;53.448;10.228;2023-02-28T10:59:41;5.30;1.00
318;DHT22;146;53.448;10.228;2023-02-28T11:02:38;5.40;1.00
318;DHT22;146;53.448;10.228;2023-02-28T11:05:34;5.40;1.00
318;DHT22;146;53.448;10.228;2023-02-28T11:08:10;5.50;1.00
318;DHT22;146;53.448;10.228;2023-02-28T11:10:48;5.40;1.00
318;DHT22;146;53.448;10.228;2023-02-28T11:13:21;5.40;1.00
318;DHT22;146;53.448;10.228;2023-02-28T11:16:14;5.40;1.00
318;DHT22;146;53.448;10.228;2023-02-28T11:18:46;5.40;1.00
318;DHT22;146;53.448;10.228;2023-02-28T11:21:22;5.30;1.00
318;DHT22;146;53.448;10.228;2023-02-28T11:23:59;5.40;1.00
318;DHT22;146;53.448;10.228;2023-02-28T11:26:48;5.60;1.00
318;DHT22;146;53.448;10.228;2023-02-28T11:29:21;5.80;1.00
318;DHT22;146;53.448;10.228;2023-02-28T11:32:11;5.80;1.00
318;DHT22;146;53.448;10.228;2023-02-28T11:34:42;5.90;1.00
318;DHT22;146;53.448;10.228;2023-02-28T11:37:18;6.00;1.00
318;DHT22;146;53.448;10.228;2023-02-28T11:39:52;6.00;1.00
318;DHT22;146;53.448;10.228;2023-02-28T11:42:50;6.10;1.00
318;DHT22;146;53.448;10.228;2023-02-28T11:45:50;6.10;1.00
318;DHT22;146;53.448;10.228;2023-02-28T11:48:22;5.90;1.00
318;DHT22;146;53.448;10.228;2023-02-28T11:51:00;6.00;1.00
318;DHT22;146;53.448;10.228;2023-02-28T11:54:10;6.00;1.00
318;DHT22;146;53.448;10.228;2023-02-28T11:56:44;6.20;1.00
318;DHT22;146;53.448;10.228;2023-02-28T11:59:43;6.20;1.00
318;DHT22;146;53.448;10.228;2023-02-28T12:02:24;6.20;1.00
318;DHT22;146;53.448;10.228;2023-02-28T12:05:05;6.30;1.00
318;DHT22;146;53.448;10.228;2023-02-28T12:07:46;6.20;1.00
318;DHT22;146;53.448;10.228;2023-02-28T12:10:21;6.10;1.00
318;DHT22;146;53.448;10.228;2023-02-28T12:13:05;6.10;1.00
318;DHT22;146;53.448;10.228;2023-02-28T12:15:57;6.00;1.00
318;DHT22;146;53.448;10.228;2023-02-28T12:18:47;6.10;1.00
318;DHT22;146;53.448;10.228;2023-02-28T12:21:24;6.30;1.00
318;DHT22;146;53.448;10.228;2023-02-28T12:24:08;6.30;1.00
318;DHT22;146;53.448;10.228;2023-02-28T12:26:45;6.30;1.00
318;DHT22;146;53.448;10.228;2023-02-28T12:29:17;6.40;1.00
318;DHT22;146;53.448;10.228;2023-02-28T12:31:48;6.40;1.00
318;DHT22;146;53.448;10.228;2023-02-28T12:34:21;6.50;1.00
318;DHT22;146;53.448;10.228;2023-02-28T12:37:03;6.50;1.00
318;DHT22;146;53.448;10.228;2023-02-28T12:39:33;6.40;1.00
318;DHT22;146;53.448;10.228;2023-02-28T12:42:10;6.50;1.00
318;DHT22;146;53.448;10.228;2023-02-28T12:44:44;6.60;1.00
318;DHT22;146;53.448;10.228;2023-02-28T12:47:20;6.50;1.00
318;DHT22;146;53.448;10.228;2023-02-28T12:49:50;6.50;1.00
318;DHT22;146;53.448;10.228;2023-02-28T12:52:23;6.50;1.00
318;DHT22;146;53.448;10.228;2023-02-28T12:54:55;6.50;1.00
318;DHT22;146;53.448;10.228;2023-02-28T12:57:31;6.50;1.00
318;DHT22;146;53.448;10.228;2023-02-28T13:00:04;6.60;1.00
318;DHT22;146;53.448;10.228;2023-02-28T13:09:03;6.70;1.00
318;DHT22;146;53.448;10.228;2023-02-28T13:11:32;6.70;1.00
318;DHT22;146;53.448;10.228;2023-02-28T13:14:05;6.70;1.00
318;DHT22;146;53.448;10.228;2023-02-28T13:16:59;6.60;1.00
318;DHT22;146;53.448;10.228;2023-02-28T13:19:28;6.50;1.00
318;DHT22;146;53.448;10.228;2023-02-28T13:21:57;6.50;1.00
318;DHT22;146;53.448;10.228;2023-02-28T13:24:54;6.50;1.00
318;DHT22;146;53.448;10.228;2023-02-28T13:27:37;6.50;1.00
318;DHT22;146;53.448;10.228;2023-02-28T13:33:23;6.70;1.00
318;DHT22;146;53.448;10.228;2023-02-28T13:36:26;6.60;1.00
318;DHT22;146;53.448;10.228;2023-02-28T13:38:55;6.80;1.00
318;DHT22;146;53.448;10.228;2023-02-28T13:41:45;6.80;1.00
318;DHT22;146;53.448;10.228;2023-02-28T13:44:13;6.80;1.00
318;DHT22;146;53.448;10.228;2023-02-28T13:47:19;6.80;1.00
318;DHT22;146;53.448;10.228;2023-02-28T13:49:49;6.90;1.00
318;DHT22;146;53.448;10.228;2023-02-28T13:52:21;6.80;1.00
318;DHT22;146;53.448;10.228;2023-02-28T13:55:27;6.80;1.00
318;DHT22;146;53.448;10.228;2023-02-28T13:58:10;6.70;1.00
318;DHT22;146;53.448;10.228;2023-02-28T14:00:57;6.70;1.00
318;DHT22;146;53.448;10.228;2023-02-28T14:06:37;6.80;1.00
318;DHT22;146;53.448;10.228;2023-02-28T14:09:21;6.80;1.00
318;DHT22;146;53.448;10.228;2023-02-28T14:11:56;6.80;1.00
318;DHT22;146;53.448;10.228;2023-02-28T14:14:54;6.80;1.00
318;DHT22;146;53.448;10.228;2023-02-28T14:17:25;6.70;1.00
318;DHT22;146;53.448;10.228;2023-02-28T14:19:57;6.40;1.00
318;DHT22;146;53.448;10.228;2023-02-28T14:22:48;6.50;1.00
318;DHT22;146;53.448;10.228;2023-02-28T14:25:33;6.50;1.00
318;DHT22;146;53.448;10.228;2023-02-28T14:28:13;6.60;1.00
318;DHT22;146;53.448;10.228;2023-02-28T14:30:52;6.70;1.00
318;DHT22;146;53.448;10.228;2023-02-28T14:33:48;6.70;1.00
318;DHT22;146;53.448;10.228;2023-02-28T14:36:42;6.70;1.00
318;DHT22;146;53.448;10.228;2023-02-28T14:39:16;6.60;1.00
318;DHT22;146;53.448;10.228;2023-02-28T14:41:45;6.80;1.00
318;DHT22;146;53.448;10.228;2023-02-28T14:44:18;6.80;1.00
318;DHT22;146;53.448;10.228;2023-02-28T14:46:49;6.80;1.00
318;DHT22;146;53.448;10.228;2023-02-28T14:49:36;6.80;1.00
318;DHT22;146;53.448;10.228;2023-02-28T14:52:15;6.80;1.00
318;DHT22;146;53.448;10.228;2023-02-28T14:55:00;6.70;1.00
318;DHT22;146;53.448;10.228;2023-02-28T14:57:34;6.70;1.00
318;DHT22;146;53.448;10.228;2023-02-28T15:00:06;6.70;1.00
318;DHT22;146;53.448;10.228;2023-02-28T15:02:44;6.60;1.00
318;DHT22;146;53.448;10.228;2023-02-28T15:05:36;6.60;1.00
318;DHT22;146;53.448;10.228;2023-02-28T15:08:11;6.50;1.00
318;DHT22;146;53.448;10.228;2023-02-28T15:10:51;6.50;1.00
318;DHT22;146;53.448;10.228;2023-02-28T15:13:19;6.50;1.00
318;DHT22;146;53.448;10.228;2023-02-28T15:15:50;6.40;1.00
318;DHT22;146;53.448;10.228;2023-02-28T15:18:26;6.40;1.00
318;DHT22;146;53.448;10.228;2023-02-28T15:20:56;6.50;1.00
318;DHT22;146;53.448;10.228;2023-02-28T15:23:24;6.50;1.00
318;DHT22;146;53.448;10.228;2023-02-28T15:25:53;6.50;1.00
318;DHT22;146;53.448;10.228;2023-02-28T15:28:22;6.60;1.00
318;DHT22;146;53.448;10.228;2023-02-28T15:30:55;6.50;1.00
318;DHT22;146;53.448;10.228;2023-02-28T15:33:31;6.50;1.00
318;DHT22;146;53.448;10.228;2023-02-28T15:36:13;6.50;1.00
318;DHT22;146;53.448;10.228;2023-02-28T15:38:41;6.30;1.00
318;DHT22;146;53.448;10.228;2023-02-28T15:41:26;6.30;1.00
318;DHT22;146;53.448;10.228;2023-02-28T15:44:17;6.20;1.00
318;DHT22;146;53.448;10.228;2023-02-28T15:46:55;6.20;1.00
318;DHT22;146;53.448;10.228;2023-02-28T15:49:40;6.20;1.00
318;DHT22;146;53.448;10.228;2023-02-28T15:52:15;6.10;1.00
318;DHT22;146;53.448;10.228;2023-02-28T15:54:46;6.10;1.00
318;DHT22;146;53.448;10.228;2023-02-28T15:57:17;6.10;1.00
318;DHT22;146;53.448;10.228;2023-02-28T15:59:50;6.10;1.00
318;DHT22;146;53.448;10.228;2023-02-28T16:02:20;6.10;1.00
318;DHT22;146;53.448;10.228;2023-02-28T16:05:02;6.10;1.00
318;DHT22;146;53.448;10.228;2023-02-28T16:07:42;6.10;1.00
318;DHT22;146;53.448;10.228;2023-02-28T16:10:11;6.10;1.00
318;DHT22;146;53.448;10.228;2023-02-28T16:12:40;6.00;1.00
318;DHT22;146;53.448;10.228;2023-02-28T16:15:18;6.00;1.00
318;DHT22;146;53.448;10.228;2023-02-28T16:17:46;5.90;1.00
318;DHT22;146;53.448;10.228;2023-02-28T16:20:14;5.90;1.00
318;DHT22;146;53.448;10.228;2023-02-28T16:22:41;5.90;1.00
318;DHT22;146;53.448;10.228;2023-02-28T16:25:11;5.90;1.00
318;DHT22;146;53.448;10.228;2023-02-28T16:27:38;5.80;1.00
318;DHT22;146;53.448;10.228;2023-02-28T16:30:09;5.80;1.00
318;DHT22;146;53.448;10.228;2023-02-28T16:32:40;5.80;1.00
318;DHT22;146;53.448;10.228;2023-02-28T16:35:10;5.70;1.00
318;DHT22;146;53.448;10.228;2023-02-28T16:37:46;5.60;1.00
318;DHT22;146;53.448;10.228;2023-02-28T16:40:18;5.60;1.00
318;DHT22;146;53.448;10.228;2023-02-28T16:42:51;5.50;1.00
318;DHT22;146;53.448;10.228;2023-02-28T16:45:22;5.40;1.00
318;DHT22;146;53.448;10.228;2023-02-28T16:47:52;5.30;1.00
318;DHT22;146;53.448;10.228;2023-02-28T16:50:20;5.20;1.00
318;DHT22;146;53.448;10.228;2023-02-28T16:52:47;5.20;1.00
318;DHT22;146;53.448;10.228;2023-02-28T16:55:15;5.10;1.00
318;DHT22;146;53.448;10.228;2023-02-28T16:57:49;4.90;1.00
318;DHT22;146;53.448;10.228;2023-02-28T17:00:20;4.80;1.00
318;DHT22;146;53.448;10.228;2023-02-28T17:02:56;4.70;1.00
318;DHT22;146;53.448;10.228;2023-02-28T17:05:24;4.60;1.00
318;DHT22;146;53.448;10.228;2023-02-28T17:07:55;4.50;1.00
318;DHT22;146;53.448;10.228;2023-02-28T17:10:23;4.40;1.00
318;DHT22;146;53.448;10.228;2023-02-28T17:12:53;4.30;1.00
318;DHT22;146;53.448;10.228;2023-02-28T17:15:21;4.20;1.00
318;DHT22;146;53.448;10.228;2023-02-28T17:17:48;4.00;1.00
318;DHT22;146;53.448;10.228;2023-02-28T17:20:22;4.10;1.00
318;DHT22;146;53.448;10.228;2023-02-28T17:22:49;4.00;1.00
318;DHT22;146;53.448;10.228;2023-02-28T17:25:19;3.90;1.00
318;DHT22;146;53.448;10.228;2023-02-28T17:27:46;3.80;1.00
318;DHT22;146;53.448;10.228;2023-02-28T17:30:15;3.70;1.00
318;DHT22;146;53.448;10.228;2023-02-28T17:32:44;3.60;1.00
318;DHT22;146;53.448;10.228;2023-02-28T17:35:11;3.60;1.00
318;DHT22;146;53.448;10.228;2023-02-28T17:37:38;3.50;1.00
318;DHT22;146;53.448;10.228;2023-02-28T17:40:09;3.40;1.00
318;DHT22;146;53.448;10.228;2023-02-28T17:42:42;3.40;1.00
318;DHT22;146;53.448;10.228;2023-02-28T17:45:10;3.30;1.00
318;DHT22;146;53.448;10.228;2023-02-28T17:47:37;3.20;1.00
318;DHT22;146;53.448;10.228;2023-02-28T17:50:06;3.10;1.00